createdAt,value
2016-11-07T09:57:46.579Z,19.78
2016-11-07T09:58:55.206Z,19.77
2016-11-07T10:00:03.832Z,19.81
2016-11-07T11:10:40.070Z,6.15
2016-11-07T11:11:48.746Z,5.8
2016-11-07T11:12:57.412Z,5.5
2016-11-07T11:14:06.358Z,5.37
2016-11-07T11:15:15.275Z,6.11
2016-11-07T11:16:24.038Z,5.72
2016-11-07T11:17:33.316Z,5.76
2016-11-07T11:18:41.935Z,5.34
2016-11-07T11:19:50.546Z,5.32
2016-11-07T11:20:59.472Z,5.5
2016-11-07T11:22:08.739Z,5.07
2016-11-07T11:23:17.687Z,5.19
2016-11-07T11:24:26.951Z,5.19
2016-11-07T11:25:36.536Z,5.19
2016-11-07T11:26:45.862Z,5.09
2016-11-07T11:27:54.806Z,5.14
2016-11-07T11:29:03.456Z,5.18
2016-11-07T11:30:12.407Z,5.24
2016-11-07T11:31:21.021Z,5.29
2016-11-07T11:32:30.325Z,5.3
2016-11-07T11:33:39.609Z,5.21
2016-11-07T11:34:48.572Z,5.15
2016-11-07T11:35:57.518Z,5.32
2016-11-07T11:37:06.792Z,5.3
2016-11-07T11:38:15.411Z,5.19
2016-11-07T11:39:24.011Z,5.12
2016-11-07T11:40:32.961Z,5.14
2016-11-07T11:41:42.249Z,5.29
2016-11-07T11:42:51.033Z,5.24
2016-11-07T11:43:59.632Z,5.32
2016-11-07T11:45:08.900Z,5.11
2016-11-07T11:46:18.479Z,5.3
2016-11-07T11:47:27.416Z,5.33
2016-11-07T11:48:36.729Z,5.21
2016-11-07T11:49:46.343Z,5.29
2016-11-07T11:50:54.971Z,5.15
2016-11-07T11:52:03.923Z,5.29
2016-11-07T11:53:13.533Z,5.19
2016-11-07T11:54:22.196Z,5.29
2016-11-07T11:55:30.810Z,5.09
2016-11-07T11:56:39.778Z,5.24
2016-11-07T11:57:49.086Z,5.24
2016-11-07T11:58:58.365Z,5.24
2016-11-07T12:00:07.521Z,5.36
2016-11-07T12:01:16.474Z,5.22
2016-11-07T12:02:25.794Z,5.37
2016-11-07T12:03:35.433Z,5.19
2016-11-07T12:04:44.428Z,5.32
2016-11-07T12:05:53.268Z,5.18
2016-11-07T12:07:01.905Z,5.33
2016-11-07T12:08:10.521Z,5.22
2016-11-07T12:09:19.143Z,5.47
2016-11-07T12:10:29.057Z,5.48
2016-11-07T12:11:38.182Z,5.4
2016-11-07T12:12:47.755Z,5.33
2016-11-07T12:13:57.003Z,5.37
2016-11-07T12:15:06.269Z,5.48
2016-11-07T12:16:16.176Z,5.32
2016-11-07T12:17:24.887Z,5.36
2016-11-07T12:18:33.871Z,5.36
2016-11-07T12:19:42.485Z,5.62
2016-11-07T12:20:51.758Z,5.5
2016-11-07T12:22:00.692Z,5.67
2016-11-07T12:23:09.690Z,5.75
2016-11-07T12:24:18.357Z,5.75
2016-11-07T12:25:27.609Z,5.72
2016-11-07T12:26:36.219Z,6.09
2016-11-07T12:27:44.833Z,5.79
2016-11-07T12:28:53.831Z,5.76
2016-11-07T12:30:02.799Z,5.69
2016-11-07T12:31:11.415Z,5.72
2016-11-07T12:32:20.352Z,5.8
2016-11-07T12:33:29.616Z,5.8
2016-11-07T12:34:38.758Z,5.62
2016-11-07T12:35:47.364Z,5.65
2016-11-07T12:36:55.984Z,5.55
2016-11-07T12:38:05.255Z,5.72
2016-11-07T12:39:14.833Z,5.27
2016-11-07T12:40:24.575Z,5.55
2016-11-07T12:41:33.526Z,5.62
2016-11-07T12:42:42.548Z,5.82
2016-11-07T12:43:51.494Z,5.76
2016-11-07T12:45:00.447Z,5.57
2016-11-07T12:46:09.751Z,5.65
2016-11-07T12:47:18.686Z,5.62
2016-11-07T12:48:27.303Z,5.66
2016-11-07T12:49:35.907Z,5.54
2016-11-07T12:50:45.155Z,5.75
2016-11-07T12:51:54.415Z,5.59
2016-11-07T12:53:03.026Z,5.62
2016-11-07T12:54:11.635Z,5.47
2016-11-07T12:55:20.271Z,5.54
2016-11-07T12:56:29.003Z,5.76
2016-11-07T12:57:37.619Z,5.76
2016-11-07T12:58:46.573Z,5.77
2016-11-07T12:59:55.195Z,5.43
2016-11-07T13:01:04.133Z,5.67
2016-11-07T13:02:13.457Z,5.61
2016-11-07T13:03:22.080Z,5.75
2016-11-07T13:04:31.348Z,5.73
2016-11-07T13:05:40.293Z,5.65
2016-11-07T13:06:49.585Z,5.9
2016-11-07T13:07:58.515Z,5.65
2016-11-07T13:09:07.785Z,5.79
2016-11-07T13:10:16.730Z,5.72
2016-11-07T13:11:25.353Z,5.69
2016-11-07T13:12:34.607Z,5.73
2016-11-07T13:13:44.248Z,5.75
2016-11-07T13:14:53.538Z,5.72
2016-11-07T13:16:02.458Z,5.61
2016-11-07T13:17:11.727Z,5.75
2016-11-07T13:18:20.981Z,5.93
2016-11-07T13:19:29.969Z,5.9
2016-11-07T13:20:38.583Z,5.93
2016-11-07T13:21:47.516Z,5.55
2016-11-07T13:22:56.142Z,5.32
2016-11-07T13:24:04.769Z,5.41
2016-11-07T13:25:13.919Z,5.69
2016-11-07T13:26:22.894Z,5.76
2016-11-07T13:27:32.166Z,5.88
2016-11-07T13:28:41.105Z,5.76
2016-11-07T13:29:49.729Z,5.47
2016-11-07T13:30:59.512Z,5.52
2016-11-07T13:32:08.465Z,5.41
2016-11-07T13:33:17.786Z,5.37
2016-11-07T13:34:26.825Z,5.4
2016-11-07T13:35:35.832Z,5.36
2016-11-07T13:36:44.954Z,5.33
2016-11-07T13:37:53.571Z,5.55
2016-11-07T13:39:02.187Z,5.8
2016-11-07T13:40:11.120Z,5.4
2016-11-07T13:41:20.713Z,5.27
2016-11-07T13:42:29.471Z,5.36
2016-11-07T13:43:38.718Z,5.65
2016-11-07T13:44:47.647Z,5.19
2016-11-07T13:45:56.917Z,5.5
2016-11-07T13:47:05.838Z,5.34
2016-11-07T13:48:15.296Z,5.5
2016-11-07T13:49:24.542Z,5.58
2016-11-07T13:50:33.492Z,5.58
2016-11-07T13:51:42.427Z,5.32
2016-11-07T13:52:51.689Z,5.33
2016-11-07T13:54:00.522Z,5.41
2016-11-07T13:55:09.506Z,5.59
2016-11-07T13:56:18.138Z,5.4
2016-11-07T13:57:27.425Z,5.39
2016-11-07T13:58:36.046Z,5.33
2016-11-07T13:59:44.964Z,5.32
2016-11-07T14:00:54.225Z,5.32
2016-11-07T14:02:03.188Z,5.29
2016-11-07T14:03:12.174Z,5.22
2016-11-07T14:04:21.429Z,5.22
2016-11-07T14:05:30.089Z,5.33
2016-11-07T14:06:39.702Z,5.16
2016-11-07T14:07:48.646Z,5.16
2016-11-07T14:08:57.260Z,5.32
2016-11-07T14:10:06.921Z,5.37
2016-11-07T14:11:16.398Z,5.29
2016-11-07T14:12:25.040Z,5.54
2016-11-07T14:13:33.659Z,5.66
2016-11-07T14:14:42.600Z,5.37
2016-11-07T14:15:51.220Z,5.54
2016-11-07T14:17:00.273Z,5.76
2016-11-07T14:18:09.538Z,5.59
2016-11-07T14:19:18.509Z,5.55
2016-11-07T14:20:27.450Z,5.3
2016-11-07T14:21:36.398Z,5.36
2016-11-07T14:22:45.879Z,5.41
2016-11-07T14:23:55.146Z,5.33
2016-11-07T14:25:04.085Z,5.27
2016-11-07T14:26:12.984Z,5.41
2016-11-07T14:27:21.911Z,5.4
2016-11-07T14:28:31.174Z,5.59
2016-11-07T14:29:39.791Z,5.43
2016-11-07T14:30:48.736Z,5.47
2016-11-07T14:31:57.358Z,5.55
2016-11-07T14:33:06.624Z,5.44
2016-11-07T14:34:15.712Z,5.29
2016-11-07T14:35:24.968Z,5.47
2016-11-07T14:36:33.595Z,5.55
2016-11-07T14:37:42.199Z,5.55
2016-11-07T14:38:50.808Z,5.3
2016-11-07T14:39:59.801Z,5.14
2016-11-07T14:41:08.780Z,5.25
2016-11-07T14:42:18.049Z,5.3
2016-11-07T14:43:27.345Z,5.39
2016-11-07T14:44:36.602Z,5.01
2016-11-07T14:45:45.650Z,5.24
2016-11-07T14:46:54.584Z,5.36
2016-11-07T14:48:03.534Z,5.19
2016-11-07T14:49:12.779Z,5.07
2016-11-07T14:50:21.378Z,5.19
2016-11-07T14:51:30.079Z,5.48
2016-11-07T14:52:38.704Z,5.44
2016-11-07T14:53:47.658Z,5.37
2016-11-07T14:54:56.595Z,5.47
2016-11-07T14:56:05.530Z,5.29
2016-11-07T14:57:14.858Z,5.15
2016-11-07T14:58:23.798Z,5
2016-11-07T14:59:33.052Z,5.19
2016-11-07T15:00:41.994Z,5.03
2016-11-07T15:01:50.641Z,5.18
2016-11-07T15:02:59.880Z,5.25
2016-11-07T15:04:09.124Z,5.07
2016-11-07T15:05:17.745Z,5.3
2016-11-07T15:06:26.992Z,5.3
2016-11-07T15:07:35.603Z,5.24
2016-11-07T15:08:45.179Z,5.39
2016-11-07T15:09:54.429Z,5.29
2016-11-07T15:11:03.357Z,5.4
2016-11-07T15:12:12.300Z,5.3
2016-11-07T15:13:21.294Z,5.32
2016-11-07T15:14:29.950Z,5.22
2016-11-07T15:15:39.863Z,5.37
2016-11-07T15:16:48.800Z,5.27
2016-11-07T15:17:58.061Z,5.25
2016-11-07T15:19:06.666Z,5.3
2016-11-07T15:20:15.640Z,5.24
2016-11-07T15:21:25.214Z,5.34
2016-11-07T15:22:33.818Z,5.39
2016-11-07T15:23:42.755Z,5.4
2016-11-07T15:24:52.011Z,5.47
2016-11-07T15:26:00.996Z,5.5
2016-11-07T15:27:10.259Z,5.27
2016-11-07T15:28:19.216Z,5.58
2016-11-07T15:29:27.826Z,5.55
2016-11-07T15:30:36.466Z,5.14
2016-11-07T15:31:45.765Z,5.3
2016-11-07T15:32:55.019Z,5.32
2016-11-07T15:34:04.282Z,5.29
2016-11-07T15:35:12.899Z,5.16
2016-11-07T15:36:21.837Z,5.07
2016-11-07T15:37:30.504Z,5.14
2016-11-07T15:38:39.130Z,5.14
2016-11-07T15:39:48.081Z,5.09
2016-11-07T15:40:56.693Z,5.15
2016-11-07T15:42:05.954Z,5.19
2016-11-07T15:43:14.943Z,5.16
2016-11-07T15:44:23.875Z,5.07
2016-11-07T15:45:32.489Z,4.86
2016-11-07T15:46:41.096Z,5
2016-11-07T15:47:49.716Z,4.78
2016-11-07T15:48:58.385Z,4.85
2016-11-07T15:50:07.000Z,4.98
2016-11-07T15:51:16.580Z,5.07
2016-11-07T15:52:25.189Z,5.18
2016-11-07T15:53:33.800Z,5.01
2016-11-07T15:54:42.563Z,4.93
2016-11-07T15:55:51.819Z,4.91
2016-11-07T15:57:00.807Z,4.88
2016-11-07T15:58:09.430Z,4.94
2016-11-07T15:59:18.058Z,4.75
2016-11-07T16:00:27.368Z,4.91
2016-11-07T16:01:36.618Z,4.96
2016-11-07T16:02:45.224Z,4.88
2016-11-07T16:03:54.175Z,4.91
2016-11-07T16:05:03.119Z,4.98
2016-11-07T16:06:12.166Z,5.18
2016-11-07T16:07:21.433Z,5.06
2016-11-07T16:08:30.056Z,5.21
2016-11-07T16:09:38.654Z,5.15
2016-11-07T16:10:47.600Z,5.27
2016-11-07T16:11:56.580Z,4.91
2016-11-07T16:13:05.508Z,4.89
2016-11-07T16:14:14.456Z,4.97
2016-11-07T16:15:23.404Z,4.94
2016-11-07T16:16:32.327Z,4.94
2016-11-07T16:17:41.412Z,4.77
2016-11-07T16:18:50.674Z,4.96
2016-11-07T16:20:00.259Z,5.03
2016-11-07T16:21:09.524Z,4.91
2016-11-07T16:22:19.099Z,4.86
2016-11-07T16:23:28.095Z,4.85
2016-11-07T16:24:37.024Z,5.15
2016-11-07T16:25:46.285Z,5.21
2016-11-07T16:26:54.908Z,4.78
2016-11-07T16:28:04.170Z,5.18
2016-11-07T16:29:13.168Z,5.19
2016-11-07T16:30:22.109Z,5.04
2016-11-07T16:31:31.691Z,4.93
2016-11-07T16:32:40.312Z,5.07
2016-11-07T16:33:48.918Z,5.14
2016-11-07T16:34:58.376Z,4.97
2016-11-07T16:36:06.988Z,5
2016-11-07T16:37:15.600Z,4.98
2016-11-07T16:38:24.869Z,5.04
2016-11-07T16:39:34.125Z,5.18
2016-11-07T16:40:43.213Z,5.15
2016-11-07T16:41:51.838Z,5.33
2016-11-07T16:43:00.775Z,5.21
2016-11-07T16:44:09.709Z,4.94
2016-11-07T16:45:18.312Z,5
2016-11-07T16:46:27.059Z,5
2016-11-07T16:47:36.000Z,4.97
2016-11-07T16:48:44.925Z,5.29
2016-11-07T16:49:53.583Z,5.25
2016-11-07T16:51:02.509Z,5.01
2016-11-07T16:52:11.818Z,5.27
2016-11-07T16:53:20.758Z,5.19
2016-11-07T16:54:29.682Z,5.36
2016-11-07T16:55:38.610Z,5.15
2016-11-07T16:56:47.858Z,5.27
2016-11-07T16:57:56.876Z,5.4
2016-11-07T16:59:05.492Z,5.19
2016-11-07T17:00:14.427Z,5.33
2016-11-07T17:01:23.368Z,5.3
2016-11-07T17:02:31.997Z,5.44
2016-11-07T17:03:40.816Z,5.22
2016-11-07T17:04:49.758Z,5.14
2016-11-07T17:05:58.392Z,5.29
2016-11-07T17:07:07.320Z,5.07
2016-11-07T17:08:16.289Z,4.97
2016-11-07T17:09:25.698Z,5.12
2016-11-07T17:10:34.970Z,5.19
2016-11-07T17:11:44.234Z,5.18
2016-11-07T17:12:53.213Z,5.16
2016-11-07T17:14:02.151Z,5.36
2016-11-07T17:15:10.806Z,5.32
2016-11-07T17:16:20.108Z,5.11
2016-11-07T17:17:28.705Z,5.12
2016-11-07T17:18:37.960Z,5.24
2016-11-07T17:19:47.210Z,5.01
2016-11-07T17:20:56.438Z,5.11
2016-11-07T17:22:05.060Z,5.09
2016-11-07T17:23:14.432Z,5.01
2016-11-07T17:24:23.041Z,5.22
2016-11-07T17:25:32.297Z,5.39
2016-11-07T17:26:41.866Z,5.39
2016-11-07T17:27:50.797Z,5.33
2016-11-07T17:28:59.402Z,5.36
2016-11-07T17:30:08.344Z,5.19
2016-11-07T17:31:17.603Z,5.3
2016-11-07T17:32:26.830Z,5.34
2016-11-07T17:33:35.761Z,5.07
2016-11-07T17:34:44.678Z,5.07
2016-11-07T17:35:54.266Z,5.15
2016-11-07T17:37:03.205Z,5.3
2016-11-07T17:38:12.075Z,5.19
2016-11-07T17:39:20.682Z,5.09
2016-11-07T17:40:29.942Z,5.07
2016-11-07T17:41:38.879Z,5.37
2016-11-07T17:42:47.493Z,5.4
2016-11-07T17:43:56.628Z,5.3
2016-11-07T17:45:05.563Z,5.3
2016-11-07T17:46:14.496Z,5.3
2016-11-07T17:47:23.770Z,5.14
2016-11-07T17:48:32.746Z,5.19
2016-11-07T17:49:41.720Z,5.27
2016-11-07T17:50:50.990Z,5.24
2016-11-07T17:51:59.599Z,5.33
2016-11-07T17:53:08.525Z,5.11
2016-11-07T17:54:17.779Z,5.21
2016-11-07T17:55:26.929Z,5.29
2016-11-07T17:56:35.573Z,5.33
2016-11-07T17:57:44.187Z,5.3
2016-11-07T17:58:52.807Z,5.04
2016-11-07T18:00:01.756Z,5.19
2016-11-07T18:01:10.888Z,5.25
2016-11-07T18:02:20.466Z,5.32
2016-11-07T18:03:30.050Z,5.29
2016-11-07T18:04:39.313Z,5.04
2016-11-07T18:05:48.242Z,4.77
2016-11-07T18:06:57.380Z,4.74
2016-11-07T18:08:06.655Z,4.91
2016-11-07T18:09:15.270Z,5.21
2016-11-07T18:10:24.212Z,5.06
2016-11-07T18:11:32.830Z,5.32
2016-11-07T18:12:41.480Z,5.22
2016-11-07T18:13:50.417Z,5.4
2016-11-07T18:14:59.686Z,4.94
2016-11-07T18:16:08.292Z,4.89
2016-11-07T18:17:17.542Z,4.93
2016-11-07T18:18:26.528Z,4.96
2016-11-07T18:19:35.468Z,4.75
2016-11-07T18:20:44.415Z,4.91
2016-11-07T18:21:53.363Z,5.03
2016-11-07T18:23:02.958Z,4.83
2016-11-07T18:24:11.952Z,4.94
2016-11-07T18:25:20.883Z,4.97
2016-11-07T18:26:29.498Z,4.93
2016-11-07T18:27:38.754Z,5.06
2016-11-07T18:28:47.679Z,4.78
2016-11-07T18:29:56.820Z,4.89
2016-11-07T18:31:05.766Z,4.96
2016-11-07T18:32:14.692Z,4.74
2016-11-07T18:33:23.637Z,4.83
2016-11-07T18:34:32.582Z,4.83
2016-11-07T18:35:41.679Z,5.01
2016-11-07T18:36:50.283Z,5.41
2016-11-07T18:37:59.212Z,5.09
2016-11-07T18:39:07.829Z,4.77
2016-11-07T18:40:16.768Z,4.82
2016-11-07T18:41:25.433Z,4.83
2016-11-07T18:42:34.049Z,4.59
2016-11-07T18:43:42.993Z,4.89
2016-11-07T18:44:51.613Z,4.69
2016-11-07T18:46:00.541Z,4.96
2016-11-07T18:47:09.528Z,4.91
2016-11-07T18:48:18.131Z,4.98
2016-11-07T18:49:26.754Z,4.98
2016-11-07T18:50:35.673Z,5.01
2016-11-07T18:51:44.631Z,4.98
2016-11-07T18:52:53.950Z,4.72
2016-11-07T18:54:02.868Z,4.91
2016-11-07T18:55:11.588Z,4.93
2016-11-07T18:56:20.202Z,4.77
2016-11-07T18:57:29.142Z,4.85
2016-11-07T18:58:38.444Z,4.89
2016-11-07T18:59:47.725Z,4.83
2016-11-07T19:00:56.665Z,4.78
2016-11-07T19:02:05.594Z,4.85
2016-11-07T19:03:14.516Z,4.79
2016-11-07T19:04:23.420Z,4.88
2016-11-07T19:05:32.027Z,5.09
2016-11-07T19:06:40.971Z,4.78
2016-11-07T19:07:49.908Z,4.86
2016-11-07T19:08:58.513Z,5.09
2016-11-07T19:10:07.170Z,4.96
2016-11-07T19:11:16.422Z,4.85
2016-11-07T19:12:25.364Z,4.78
2016-11-07T19:13:33.968Z,4.77
2016-11-07T19:14:43.545Z,4.85
2016-11-07T19:15:52.214Z,5
2016-11-07T19:17:00.829Z,4.86
2016-11-07T19:18:09.758Z,4.83
2016-11-07T19:19:18.372Z,4.82
2016-11-07T19:20:27.629Z,4.82
2016-11-07T19:21:37.140Z,4.82
2016-11-07T19:22:46.738Z,4.88
2016-11-07T19:23:56.070Z,4.88
2016-11-07T19:25:04.675Z,4.74
2016-11-07T19:26:13.290Z,4.69
2016-11-07T19:27:22.602Z,4.75
2016-11-07T19:28:31.537Z,4.98
2016-11-07T19:29:40.480Z,4.78
2016-11-07T19:30:49.733Z,4.89
2016-11-07T19:31:58.984Z,4.63
2016-11-07T19:33:08.350Z,4.64
2016-11-07T19:34:17.284Z,4.56
2016-11-07T19:35:26.212Z,4.61
2016-11-07T19:36:35.156Z,4.53
2016-11-07T19:37:44.090Z,4.46
2016-11-07T19:38:53.174Z,4.3
2016-11-07T19:40:02.117Z,4.39
2016-11-07T19:41:11.049Z,4.35
2016-11-07T19:42:20.316Z,4.69
2016-11-07T19:43:28.937Z,4.53
2016-11-07T19:44:37.910Z,4.45
2016-11-07T19:45:47.163Z,4.42
2016-11-07T19:46:55.777Z,4.41
2016-11-07T19:48:04.373Z,4.34
2016-11-07T19:49:12.979Z,4.28
2016-11-07T19:50:21.629Z,4.34
2016-11-07T19:51:30.567Z,4.31
2016-11-07T19:52:39.177Z,4.45
2016-11-07T19:53:48.111Z,4.31
2016-11-07T19:54:57.371Z,4.3
2016-11-07T19:56:06.687Z,4.31
2016-11-07T19:57:15.656Z,4.3
2016-11-07T19:58:24.587Z,4.38
2016-11-07T19:59:33.205Z,4.31
2016-11-07T20:00:42.137Z,4.38
2016-11-07T20:01:51.163Z,4.34
2016-11-07T20:03:00.089Z,4.36
2016-11-07T20:04:09.022Z,4.39
2016-11-07T20:05:17.988Z,4.48
2016-11-07T20:06:26.923Z,4.46
2016-11-07T20:07:36.548Z,4.45
2016-11-07T20:08:45.483Z,4.42
2016-11-07T20:09:54.420Z,4.57
2016-11-07T20:11:03.357Z,4.88
2016-11-07T20:12:11.973Z,4.41
2016-11-07T20:13:20.961Z,4.38
2016-11-07T20:14:29.899Z,4.24
2016-11-07T20:15:38.827Z,4.61
2016-11-07T20:16:47.758Z,4.49
2016-11-07T20:17:56.694Z,4.61
2016-11-07T20:19:05.685Z,4.64
2016-11-07T20:20:14.983Z,4.69
2016-11-07T20:21:23.929Z,4.72
2016-11-07T20:22:32.866Z,4.79
2016-11-07T20:23:41.469Z,4.56
2016-11-07T20:24:50.133Z,4.45
2016-11-07T20:25:58.744Z,4.42
2016-11-07T20:27:07.677Z,4.36
2016-11-07T20:28:16.631Z,4.53
2016-11-07T20:29:25.562Z,4.75
2016-11-07T20:30:34.598Z,4.75
2016-11-07T20:31:43.520Z,4.61
2016-11-07T20:32:53.087Z,4.46
2016-11-07T20:34:02.019Z,4.71
2016-11-07T20:35:10.632Z,4.6
2016-11-07T20:36:19.616Z,4.56
2016-11-07T20:37:29.206Z,4.63
2016-11-07T20:38:38.477Z,4.63
2016-11-07T20:39:47.714Z,4.69
2016-11-07T20:40:56.366Z,4.6
2016-11-07T20:42:05.369Z,4.78
2016-11-07T20:43:13.977Z,4.79
2016-11-07T20:44:22.913Z,4.74
2016-11-07T20:45:31.522Z,4.56
2016-11-07T20:46:40.449Z,4.56
2016-11-07T20:47:49.533Z,4.67
2016-11-07T20:48:58.484Z,4.69
2016-11-07T20:50:07.097Z,4.74
2016-11-07T20:51:15.709Z,4.63
2016-11-07T20:52:24.627Z,4.72
2016-11-07T20:53:33.298Z,4.69
2016-11-07T20:54:42.550Z,4.49
2016-11-07T20:55:51.487Z,4.56
2016-11-07T20:57:01.057Z,4.56
2016-11-07T20:58:09.984Z,4.78
2016-11-07T20:59:20.097Z,4.53
2016-11-07T21:00:29.345Z,4.61
2016-11-07T21:01:38.020Z,4.51
2016-11-07T21:02:47.388Z,4.27
2016-11-07T21:03:55.994Z,4.45
2016-11-07T21:05:04.746Z,4.28
2016-11-07T21:06:14.014Z,4.48
2016-11-07T21:07:22.955Z,4.43
2016-11-07T21:08:32.534Z,4.51
2016-11-07T21:09:41.155Z,4.6
2016-11-07T21:10:49.863Z,4.34
2016-11-07T21:11:58.789Z,4.49
2016-11-07T21:13:07.436Z,4.49
2016-11-07T21:14:17.336Z,4.64
2016-11-07T21:15:26.575Z,4.61
2016-11-07T21:16:35.246Z,4.49
2016-11-07T21:17:44.174Z,4.67
2016-11-07T21:18:53.433Z,4.57
2016-11-07T21:20:02.046Z,4.71
2016-11-07T21:21:11.309Z,4.49
2016-11-07T21:22:20.291Z,4.61
2016-11-07T21:23:28.902Z,4.31
2016-11-07T21:24:37.519Z,4.34
2016-11-07T21:25:46.132Z,4.57
2016-11-07T21:26:54.740Z,4.46
2016-11-07T21:28:04.192Z,4.61
2016-11-07T21:29:13.136Z,4.41
2016-11-07T21:30:22.061Z,4.26
2016-11-07T21:31:32.010Z,4.28
2016-11-07T21:32:41.263Z,4.28
2016-11-07T21:33:50.085Z,4.42
2016-11-07T21:34:59.024Z,4.48
2016-11-07T21:36:07.956Z,4.61
2016-11-07T21:37:16.887Z,4.57
2016-11-07T21:38:25.527Z,4.63
2016-11-07T21:39:34.901Z,4.51
2016-11-07T21:40:43.821Z,4.43
2016-11-07T21:41:52.440Z,4.35
2016-11-07T21:43:01.389Z,4.46
2016-11-07T21:44:10.310Z,4.45
2016-11-07T21:45:19.306Z,4.64
2016-11-07T21:46:28.247Z,4.54
2016-11-07T21:47:36.870Z,4.35
2016-11-07T21:48:46.182Z,4.31
2016-11-07T21:49:54.781Z,4.35
2016-11-07T21:51:03.915Z,4.45
2016-11-07T21:52:12.858Z,4.41
2016-11-07T21:53:21.830Z,4.49
2016-11-07T21:54:31.099Z,4.54
2016-11-07T21:55:40.357Z,4.46
2016-11-07T21:56:49.895Z,4.64
2016-11-07T21:57:58.499Z,4.61
2016-11-07T21:59:08.102Z,4.49
2016-11-07T22:00:17.688Z,4.51
2016-11-07T22:01:26.633Z,4.3
2016-11-07T22:02:35.302Z,4.35
2016-11-07T22:03:44.242Z,4.43
2016-11-07T22:04:53.495Z,4.35
2016-11-07T22:06:02.114Z,4.23
2016-11-07T22:07:11.362Z,4.2
2016-11-07T22:08:20.031Z,4.3
2016-11-07T22:09:29.289Z,4.13
2016-11-07T22:10:38.215Z,4.26
2016-11-07T22:11:46.871Z,4.26
2016-11-07T22:12:55.821Z,4.27
2016-11-07T22:14:04.487Z,4.28
2016-11-07T22:15:13.440Z,4.23
2016-11-07T22:16:22.378Z,4.28
2016-11-07T22:17:30.990Z,4.3
2016-11-07T22:18:40.254Z,4.34
2016-11-07T22:19:49.874Z,4.18
2016-11-07T22:20:58.812Z,4.16
2016-11-07T22:22:07.419Z,4.18
2016-11-07T22:23:16.675Z,4.13
2016-11-07T22:24:25.941Z,4.18
2016-11-07T22:25:35.351Z,4.1
2016-11-07T22:26:44.604Z,4.12
2016-11-07T22:27:53.550Z,4.24
2016-11-07T22:29:02.163Z,4.34
2016-11-07T22:30:11.438Z,4.41
2016-11-07T22:31:20.987Z,4.34
2016-11-07T22:32:30.234Z,4.13
2016-11-07T22:33:39.481Z,4.36
2016-11-07T22:34:48.097Z,4.27
2016-11-07T22:35:57.026Z,4.16
2016-11-07T22:37:05.696Z,4.3
2016-11-07T22:38:14.623Z,4.21
2016-11-07T22:39:23.557Z,4.16
2016-11-07T22:40:32.818Z,4.36
2016-11-07T22:41:41.757Z,4.28
2016-11-07T22:42:50.455Z,4.03
2016-11-07T22:43:59.401Z,4.12
2016-11-07T22:45:08.020Z,4.1
2016-11-07T22:46:16.955Z,4.03
2016-11-07T22:47:25.878Z,3.88
2016-11-07T22:48:35.024Z,3.96
2016-11-07T22:49:43.641Z,3.96
2016-11-07T22:50:52.579Z,3.94
2016-11-07T22:52:01.181Z,3.88
2016-11-07T22:53:10.771Z,3.88
2016-11-07T22:54:19.587Z,3.91
2016-11-07T22:55:28.847Z,3.87
2016-11-07T22:56:37.461Z,3.81
2016-11-07T22:57:46.404Z,3.96
2016-11-07T22:58:55.338Z,4.16
2016-11-07T23:00:04.991Z,4.13
2016-11-07T23:01:14.247Z,4.08
2016-11-07T23:02:22.861Z,4.06
2016-11-07T23:03:31.807Z,3.98
2016-11-07T23:04:40.769Z,3.99
2016-11-07T23:05:50.125Z,4.03
2016-11-07T23:06:58.730Z,3.96
2016-11-07T23:08:07.661Z,3.81
2016-11-07T23:09:16.267Z,3.96
2016-11-07T23:10:25.237Z,4.12
2016-11-07T23:11:34.588Z,4.13
2016-11-07T23:12:43.201Z,4.03
2016-11-07T23:13:52.454Z,4.03
2016-11-07T23:15:01.067Z,4.02
2016-11-07T23:16:09.678Z,4.23
2016-11-07T23:17:18.341Z,4.16
2016-11-07T23:18:26.951Z,3.72
2016-11-07T23:19:35.610Z,4.03
2016-11-07T23:20:44.867Z,4
2016-11-07T23:21:53.820Z,3.92
2016-11-07T23:23:03.218Z,4.02
2016-11-07T23:24:11.845Z,4.16
2016-11-07T23:25:20.795Z,4.12
2016-11-07T23:26:30.047Z,4.17
2016-11-07T23:27:38.984Z,3.91
2016-11-07T23:28:47.798Z,3.81
2016-11-07T23:29:57.066Z,3.69
2016-11-07T23:31:06.031Z,3.84
2016-11-07T23:32:15.287Z,3.81
2016-11-07T23:33:24.531Z,3.85
2016-11-07T23:34:33.669Z,3.76
2016-11-07T23:35:43.245Z,3.74
2016-11-07T23:36:51.875Z,3.49
2016-11-07T23:38:00.483Z,3.69
2016-11-07T23:39:09.426Z,3.54
2016-11-07T23:40:18.288Z,3.62
2016-11-07T23:41:26.902Z,3.72
2016-11-07T23:42:36.482Z,3.74
2016-11-07T23:43:45.460Z,3.88
2016-11-07T23:44:54.392Z,3.78
2016-11-07T23:46:03.101Z,3.63
2016-11-07T23:47:12.038Z,3.69
2016-11-07T23:48:20.981Z,3.62
2016-11-07T23:49:29.589Z,3.92
2016-11-07T23:50:38.197Z,3.9
2016-11-07T23:51:47.602Z,3.62
2016-11-07T23:52:56.207Z,3.62
2016-11-07T23:54:05.470Z,3.81
2016-11-07T23:55:14.084Z,3.87
2016-11-07T23:56:23.342Z,3.82
2016-11-07T23:57:32.538Z,3.6
2016-11-07T23:58:41.480Z,3.81
2016-11-07T23:59:50.417Z,3.78
